createdAt,value
2023-03-11T00:00:32.566Z,660.00
2023-03-11T00:04:32.625Z,659.00
2023-03-11T00:08:32.572Z,656.00
2023-03-11T00:12:32.492Z,657.00
2023-03-11T00:16:32.557Z,664.00
2023-03-11T00:20:32.461Z,653.00
2023-03-11T00:24:32.402Z,652.00
2023-03-11T00:28:34.368Z,648.00
2023-03-11T00:32:32.388Z,645.00
2023-03-11T00:36:32.485Z,649.00
2023-03-11T00:40:32.695Z,649.00
2023-03-11T00:44:32.916Z,649.00
2023-03-11T00:48:33.130Z,648.00
2023-03-11T00:52:33.104Z,645.00
2023-03-11T00:56:33.023Z,641.00
2023-03-11T01:00:33.040Z,639.00
2023-03-11T01:04:33.065Z,647.00
2023-03-11T01:08:32.906Z,638.00
2023-03-11T01:12:32.880Z,635.00
2023-03-11T01:16:32.856Z,638.00
2023-03-11T01:20:32.779Z,646.00
2023-03-11T01:24:32.788Z,635.00
2023-03-11T01:28:32.773Z,634.00
2023-03-11T01:32:32.962Z,637.00
2023-03-11T01:36:33.084Z,635.00
2023-03-11T01:40:33.260Z,632.00
2023-03-11T01:44:33.478Z,634.00
2023-03-11T01:48:33.429Z,633.00
2023-03-11T01:52:33.383Z,631.00
2023-03-11T01:56:33.358Z,634.00
2023-03-11T02:00:33.342Z,632.00
2023-03-11T02:04:33.326Z,625.00
2023-03-11T02:08:33.261Z,628.00
2023-03-11T02:12:33.224Z,625.00
2023-03-11T02:16:33.265Z,630.00
2023-03-11T02:20:33.139Z,625.00
2023-03-11T02:24:33.102Z,625.00
2023-03-11T02:28:33.303Z,617.00
2023-03-11T02:32:33.285Z,619.00
2023-03-11T02:36:33.288Z,624.00
2023-03-11T02:40:33.184Z,626.00
2023-03-11T02:44:33.134Z,618.00
2023-03-11T02:48:33.107Z,629.00
2023-03-11T02:52:33.045Z,619.00
2023-03-11T02:56:33.075Z,618.00
2023-03-11T03:00:33.019Z,614.00
2023-03-11T03:04:33.013Z,615.00
2023-03-11T03:08:32.959Z,613.00
2023-03-11T03:12:32.912Z,616.00
2023-03-11T03:16:32.867Z,611.00
2023-03-11T03:20:32.826Z,612.00
2023-03-11T03:24:32.798Z,613.00
2023-03-11T03:28:32.784Z,609.00
2023-03-11T03:32:32.825Z,608.00
2023-03-11T03:36:32.673Z,605.00
2023-03-11T03:40:32.660Z,610.00
2023-03-11T03:44:32.572Z,605.00
2023-03-11T03:48:32.753Z,605.00
2023-03-11T03:52:32.674Z,604.00
2023-03-11T03:56:32.655Z,602.00
2023-03-11T04:00:32.593Z,597.00
2023-03-11T04:04:32.551Z,597.00
2023-03-11T04:08:32.529Z,596.00
2023-03-11T04:12:32.507Z,598.00
2023-03-11T04:16:32.499Z,602.00
2023-03-11T04:20:32.409Z,598.00
2023-03-11T04:24:32.412Z,595.00
2023-03-11T04:28:32.342Z,592.00
2023-03-11T04:32:32.349Z,593.00
2023-03-11T04:36:32.423Z,598.00
2023-03-11T04:40:32.546Z,592.00
2023-03-11T04:44:32.609Z,590.00
2023-03-11T04:48:32.762Z,593.00
2023-03-11T04:52:32.881Z,593.00
2023-03-11T04:56:33.007Z,593.00
2023-03-11T05:00:33.209Z,586.00
2023-03-11T05:04:33.375Z,588.00
2023-03-11T05:08:33.291Z,586.00
2023-03-11T05:12:33.274Z,587.00
2023-03-11T05:16:33.240Z,589.00
2023-03-11T05:20:33.175Z,592.00
2023-03-11T05:24:33.152Z,578.00
2023-03-11T05:28:33.134Z,584.00
2023-03-11T05:32:33.126Z,587.00
2023-03-11T05:36:33.043Z,585.00
2023-03-11T05:40:32.998Z,589.00
2023-03-11T05:44:32.982Z,587.00
2023-03-11T05:48:32.909Z,581.00
2023-03-11T05:52:32.890Z,580.00
2023-03-11T05:56:32.872Z,576.00
2023-03-11T06:00:32.786Z,577.00
2023-03-11T06:04:32.884Z,574.00
2023-03-11T06:08:32.729Z,580.00
2023-03-11T06:12:32.754Z,581.00
2023-03-11T06:16:32.911Z,583.00
2023-03-11T06:20:32.978Z,580.00
2023-03-11T06:24:33.200Z,575.00
2023-03-11T06:28:33.370Z,586.00
2023-03-11T06:32:33.589Z,578.00
2023-03-11T06:36:33.637Z,579.00
2023-03-11T06:40:33.770Z,574.00
2023-03-11T06:44:33.900Z,582.00
2023-03-11T06:48:34.069Z,577.00
2023-03-11T06:52:34.201Z,578.00
2023-03-11T06:56:34.387Z,574.00
2023-03-11T07:00:34.629Z,573.00
2023-03-11T07:04:34.549Z,578.00
2023-03-11T07:08:34.525Z,573.00
2023-03-11T07:12:34.499Z,582.00
2023-03-11T07:16:34.502Z,583.00
2023-03-11T07:20:34.452Z,583.00
2023-03-11T07:24:34.371Z,577.00
2023-03-11T07:28:34.350Z,571.00
2023-03-11T07:32:34.354Z,566.00
2023-03-11T07:36:34.254Z,563.00
2023-03-11T07:40:34.388Z,560.00
2023-03-11T07:44:34.316Z,553.00
2023-03-11T07:48:34.277Z,548.00
2023-03-11T07:52:34.259Z,543.00
2023-03-11T07:56:34.195Z,544.00
2023-03-11T08:00:34.137Z,543.00
2023-03-11T08:04:34.130Z,547.00
2023-03-11T08:08:34.062Z,547.00
2023-03-11T08:12:34.046Z,549.00
2023-03-11T08:16:34.013Z,550.00
2023-03-11T08:20:34.038Z,548.00
2023-03-11T08:24:34.163Z,551.00
2023-03-11T08:28:34.348Z,550.00
2023-03-11T08:32:34.660Z,549.00
2023-03-11T08:36:34.561Z,551.00
2023-03-11T08:40:34.533Z,551.00
2023-03-11T08:44:34.444Z,545.00
2023-03-11T08:48:34.433Z,553.00
2023-03-11T08:52:34.416Z,552.00
2023-03-11T08:56:34.341Z,549.00
2023-03-11T09:00:34.324Z,543.00
2023-03-11T09:04:34.288Z,550.00
2023-03-11T09:08:34.214Z,542.00
2023-03-11T09:12:34.197Z,542.00
2023-03-11T09:16:34.201Z,541.00
2023-03-11T09:20:34.146Z,536.00
2023-03-11T09:24:34.093Z,535.00
2023-03-11T09:28:34.037Z,534.00
2023-03-11T09:32:34.063Z,538.00
2023-03-11T09:36:33.999Z,535.00
2023-03-11T09:40:33.974Z,536.00
2023-03-11T09:44:33.895Z,538.00
2023-03-11T09:48:33.877Z,537.00
2023-03-11T09:52:33.847Z,534.00
2023-03-11T09:56:33.781Z,540.00
2023-03-11T10:00:33.804Z,535.00
2023-03-11T10:04:33.838Z,525.00
2023-03-11T10:08:33.765Z,524.00
2023-03-11T10:12:33.723Z,531.00
2023-03-11T10:16:33.743Z,528.00
2023-03-11T10:20:33.625Z,522.00
2023-03-11T10:24:33.605Z,534.00
2023-03-11T10:28:33.583Z,528.00
2023-03-11T10:32:33.598Z,520.00
2023-03-11T10:36:33.541Z,522.00
2023-03-11T10:40:33.470Z,517.00
2023-03-11T10:44:33.440Z,520.00
2023-03-11T10:48:33.419Z,509.00
2023-03-11T10:52:33.324Z,509.00
2023-03-11T10:56:33.286Z,504.00
2023-03-11T11:00:33.316Z,505.00
2023-03-11T11:04:33.390Z,510.00
2023-03-11T11:08:33.362Z,512.00
2023-03-11T11:12:33.424Z,503.00
2023-03-11T11:16:33.549Z,511.00
2023-03-11T11:20:33.529Z,501.00
2023-03-11T11:24:33.624Z,501.00
2023-03-11T11:28:33.640Z,502.00
2023-03-11T11:32:33.915Z,505.00
2023-03-11T11:36:33.766Z,503.00
2023-03-11T11:40:33.866Z,505.00
2023-03-11T11:44:33.953Z,513.00
2023-03-11T11:48:34.013Z,505.00
2023-03-11T11:52:34.054Z,505.00
2023-03-11T11:56:34.095Z,501.00
2023-03-11T12:00:34.186Z,505.00
2023-03-11T12:04:34.265Z,500.00
2023-03-11T12:08:34.235Z,509.00
2023-03-11T12:12:34.258Z,503.00
2023-03-11T12:16:34.302Z,502.00
2023-03-11T12:20:34.357Z,505.00
2023-03-11T12:24:34.354Z,508.00
2023-03-11T12:28:34.405Z,504.00
2023-03-11T12:32:34.527Z,502.00
2023-03-11T12:36:34.529Z,508.00
2023-03-11T12:40:34.590Z,503.00
2023-03-11T12:44:34.649Z,509.00
2023-03-11T12:48:34.732Z,509.00
2023-03-11T12:52:34.741Z,509.00
2023-03-11T12:56:34.811Z,506.00
2023-03-11T13:00:34.796Z,509.00
2023-03-11T13:04:34.924Z,506.00
2023-03-11T13:08:34.906Z,502.00
2023-03-11T13:12:34.952Z,503.00
2023-03-11T13:16:35.151Z,506.00
2023-03-11T13:20:35.042Z,507.00
2023-03-11T13:24:35.121Z,512.00
2023-03-11T13:28:35.134Z,507.00
2023-03-11T13:32:35.225Z,512.00
2023-03-11T13:36:35.193Z,505.00
2023-03-11T13:40:35.276Z,506.00
2023-03-11T13:44:35.302Z,509.00
2023-03-11T13:48:37.525Z,507.00
2023-03-11T13:52:35.357Z,508.00
2023-03-11T13:56:35.419Z,511.00
2023-03-11T14:00:35.447Z,525.00
2023-03-11T14:04:35.511Z,515.00
2023-03-11T14:08:35.536Z,524.00
2023-03-11T14:12:35.638Z,534.00
2023-03-11T14:16:35.808Z,539.00
2023-03-11T14:20:35.788Z,543.00
2023-03-11T14:24:35.797Z,548.00
2023-03-11T14:28:35.795Z,551.00
2023-03-11T14:32:35.929Z,544.00
2023-03-11T14:36:35.891Z,547.00
2023-03-11T14:40:35.912Z,547.00
2023-03-11T14:44:35.989Z,550.00
2023-03-11T14:48:35.977Z,550.00
2023-03-11T14:52:36.057Z,553.00
2023-03-11T14:56:36.069Z,554.00
2023-03-11T15:00:36.121Z,557.00
2023-03-11T15:04:36.201Z,552.00
2023-03-11T15:08:36.316Z,560.00
2023-03-11T15:12:36.323Z,562.00
2023-03-11T15:16:36.483Z,549.00
2023-03-11T15:20:36.549Z,547.00
2023-03-11T15:24:36.574Z,546.00
2023-03-11T15:28:36.618Z,537.00
2023-03-11T15:32:36.940Z,539.00
2023-03-11T15:36:36.846Z,534.00
2023-03-11T15:40:45.296Z,532.00
2023-03-11T15:44:37.976Z,514.00
2023-03-11T15:48:36.911Z,508.00
2023-03-11T15:52:36.918Z,516.00
2023-03-11T15:56:37.016Z,509.00
2023-03-11T16:00:37.182Z,510.00
2023-03-11T16:04:37.530Z,504.00
2023-03-11T16:08:37.553Z,515.00
2023-03-11T16:12:37.813Z,517.00
2023-03-11T16:16:37.978Z,519.00
2023-03-11T16:20:38.165Z,525.00
2023-03-11T16:24:38.385Z,532.00
2023-03-11T16:28:38.329Z,532.00
2023-03-11T16:32:38.660Z,524.00
2023-03-11T16:36:38.237Z,534.00
2023-03-11T16:40:38.198Z,534.00
2023-03-11T16:44:38.183Z,537.00
2023-03-11T16:48:38.119Z,539.00
2023-03-11T16:52:38.192Z,537.00
2023-03-11T16:56:41.150Z,537.00
2023-03-11T17:00:38.135Z,542.00
2023-03-11T17:04:38.048Z,547.00
2023-03-11T17:08:37.963Z,537.00
2023-03-11T17:12:37.944Z,533.00
2023-03-11T17:16:37.951Z,548.00
2023-03-11T17:20:37.857Z,545.00
2023-03-11T17:24:37.798Z,538.00
2023-03-11T17:28:37.777Z,540.00
2023-03-11T17:32:37.756Z,547.00
2023-03-11T17:36:37.715Z,548.00
2023-03-11T17:40:37.676Z,537.00
2023-03-11T17:44:50.687Z,546.00
2023-03-11T17:48:38.575Z,548.00
2023-03-11T17:52:37.530Z,544.00
2023-03-11T17:56:37.535Z,546.00
2023-03-11T18:00:37.457Z,550.00
2023-03-11T18:04:37.454Z,551.00
2023-03-11T18:08:37.508Z,547.00
2023-03-11T18:12:37.548Z,547.00
2023-03-11T18:16:37.753Z,548.00
2023-03-11T18:20:37.735Z,542.00
2023-03-11T18:24:37.868Z,548.00
2023-03-11T18:28:37.965Z,551.00
2023-03-11T18:32:38.127Z,547.00
2023-03-11T18:36:38.211Z,550.00
2023-03-11T18:40:38.345Z,550.00
2023-03-11T18:44:38.468Z,553.00
2023-03-11T18:48:38.663Z,542.00
2023-03-11T18:52:38.837Z,547.00
2023-03-11T18:56:39.003Z,545.00
2023-03-11T19:00:39.152Z,549.00
2023-03-11T19:04:39.322Z,552.00
2023-03-11T19:08:39.467Z,550.00
2023-03-11T19:12:39.610Z,551.00
2023-03-11T19:16:39.885Z,548.00
2023-03-11T19:20:40.061Z,552.00
2023-03-11T19:24:40.260Z,551.00
2023-03-11T19:28:40.472Z,549.00
2023-03-11T19:32:40.888Z,547.00
2023-03-11T19:36:40.927Z,544.00
2023-03-11T19:40:40.849Z,549.00
2023-03-11T19:44:40.823Z,546.00
2023-03-11T19:48:40.805Z,541.00
2023-03-11T19:52:40.727Z,546.00
2023-03-11T19:56:40.663Z,545.00
2023-03-11T20:00:40.644Z,549.00
2023-03-11T20:04:43.067Z,544.00
2023-03-11T20:08:40.561Z,546.00
2023-03-11T20:12:52.287Z,542.00
2023-03-11T20:16:41.573Z,549.00
2023-03-11T20:20:40.464Z,543.00
2023-03-11T20:24:40.682Z,545.00
2023-03-11T20:28:40.598Z,544.00
2023-03-11T20:32:40.565Z,546.00
2023-03-11T20:36:40.502Z,543.00
2023-03-11T20:40:40.559Z,543.00
2023-03-11T20:44:40.538Z,543.00
2023-03-11T20:48:40.392Z,539.00
2023-03-11T20:52:40.394Z,540.00
2023-03-11T20:56:40.316Z,538.00
2023-03-11T21:00:40.351Z,542.00
2023-03-11T21:04:40.242Z,542.00
2023-03-11T21:08:40.407Z,540.00
2023-03-11T21:12:40.532Z,542.00
2023-03-11T21:16:40.833Z,539.00
2023-03-11T21:20:41.065Z,546.00
2023-03-11T21:24:41.258Z,544.00
2023-03-11T21:28:41.425Z,540.00
2023-03-11T21:32:41.610Z,540.00
2023-03-11T21:36:41.453Z,540.00
2023-03-11T21:40:41.374Z,539.00
2023-03-11T21:44:41.441Z,542.00
2023-03-11T21:48:41.339Z,540.00
2023-03-11T21:52:41.289Z,540.00
2023-03-11T21:56:41.313Z,539.00
2023-03-11T22:00:41.255Z,536.00
2023-03-11T22:04:41.265Z,536.00
2023-03-11T22:08:41.137Z,535.00
2023-03-11T22:12:41.164Z,534.00
2023-03-11T22:16:41.129Z,534.00
2023-03-11T22:20:41.094Z,539.00
2023-03-11T22:24:40.980Z,534.00
2023-03-11T22:28:40.927Z,538.00
2023-03-11T22:32:40.965Z,537.00
2023-03-11T22:36:40.849Z,541.00
2023-03-11T22:40:40.831Z,535.00
2023-03-11T22:44:40.971Z,536.00
2023-03-11T22:48:40.931Z,535.00
2023-03-11T22:52:40.859Z,538.00
2023-03-11T22:56:40.835Z,538.00
2023-03-11T23:00:40.816Z,538.00
2023-03-11T23:04:40.760Z,542.00
2023-03-11T23:08:40.685Z,534.00
2023-03-11T23:12:40.711Z,537.00
2023-03-11T23:16:40.707Z,534.00
2023-03-11T23:20:40.640Z,537.00
2023-03-11T23:24:40.556Z,534.00
2023-03-11T23:28:40.485Z,535.00
2023-03-11T23:32:40.636Z,529.00
2023-03-11T23:36:40.556Z,531.00
2023-03-11T23:40:40.614Z,537.00
2023-03-11T23:44:40.801Z,535.00
2023-03-11T23:48:40.896Z,530.00
2023-03-11T23:52:40.941Z,532.00
2023-03-11T23:56:40.943Z,529.00
